Time;durP1;ratioP1;P1;durP2;ratioP2;P2;SDS_P1;SDS_P2;PMS_P1;PMS_P2;Temp;Humidity;BMP_temperature;BMP_pressure;BME280_temperature;BME280_humidity;BME280_pressure;Samples;Min_cycle;Max_cycle;Signal;HPM_P1;HPM_P2
2022/01/11 00:00:54;;;;;;;30.63;15.20;;;;;;;0.97;89.73;103146.31;5078734;28;20437;-75
2022/01/11 00:03:20;;;;;;;34.47;14.80;;;;;;;0.82;89.59;103142.94;5069011;28;20518;-75
2022/01/11 00:08:13;;;;;;;33.83;15.07;;;;;;;0.82;89.61;103135.00;5071673;28;20029;-76
2022/01/11 00:10:48;;;;;;;38.77;15.00;;;;;;;0.80;89.19;103123.66;5071615;28;21919;-74
2022/01/11 00:13:16;;;;;;;43.10;14.37;;;;;;;0.49;90.29;103133.81;5072590;28;20032;-75
2022/01/11 00:15:41;;;;;;;34.03;14.83;;;;;;;0.49;91.07;103123.22;5072743;28;20400;-76
2022/01/11 00:18:07;;;;;;;28.60;14.27;;;;;;;0.39;91.38;103125.66;5072701;28;20028;-75
2022/01/11 00:20:32;;;;;;;29.87;13.00;;;;;;;0.55;90.91;103131.56;5073231;28;20036;-75
2022/01/11 00:25:29;;;;;;;28.07;15.00;;;;;;;0.99;87.96;103141.75;5052943;28;20044;-76
2022/01/11 00:27:55;;;;;;;28.00;15.20;;;;;;;0.88;89.00;103141.66;5061074;28;20082;-75
2022/01/11 00:30:21;;;;;;;30.67;13.97;;;;;;;0.85;89.15;103137.41;5053995;28;20484;-75
2022/01/11 00:32:51;;;;;;;43.73;15.73;;;;;;;0.96;88.36;103133.19;5073684;28;20072;-75
2022/01/11 00:35:21;;;;;;;32.40;15.93;;;;;;;0.84;88.28;103138.38;5093375;28;20035;-76
2022/01/11 00:37:47;;;;;;;34.23;15.00;;;;;;;0.61;89.57;103133.81;5092676;28;20542;-75
2022/01/11 00:40:12;;;;;;;37.90;14.47;;;;;;;0.58;89.66;103135.81;5074962;28;20123;-75
2022/01/11 00:42:38;;;;;;;30.10;14.77;;;;;;;0.20;90.84;103138.38;5070089;28;20434;-75
2022/01/11 00:45:07;;;;;;;31.20;15.30;;;;;;;0.29;91.35;103148.38;5072275;28;20051;-75
2022/01/11 00:47:33;;;;;;;38.17;15.87;;;;;;;0.06;91.38;103153.47;5073047;28;20123;-75
2022/01/11 00:49:58;;;;;;;29.80;15.17;;;;;;;-0.04;91.79;103162.00;5087928;28;20063;-76
2022/01/11 00:52:23;;;;;;;31.20;14.50;;;;;;;0.02;92.26;103157.28;5072504;28;20041;-76
2022/01/11 00:54:49;;;;;;;32.53;15.23;;;;;;;0.62;89.56;103155.81;5072400;28;20033;-76
2022/01/11 00:57:14;;;;;;;42.83;15.17;;;;;;;0.84;88.66;103154.25;5072405;28;20446;-75
2022/01/11 00:59:40;;;;;;;38.43;16.07;;;;;;;0.39;90.15;103160.03;5072940;28;20033;-75
2022/01/11 01:02:06;;;;;;;38.27;14.63;;;;;;;0.30;90.00;103152.69;5072600;28;20116;-75
2022/01/11 01:04:31;;;;;;;64.47;16.23;;;;;;;0.04;91.57;103163.31;5054237;28;20071;-75
2022/01/11 01:06:57;;;;;;;78.07;16.57;;;;;;;-0.04;91.81;103163.81;5054191;28;20035;-76
2022/01/11 01:09:25;;;;;;;57.70;15.50;;;;;;;-0.03;92.64;103158.41;5071980;28;20485;-75
2022/01/11 01:11:51;;;;;;;41.10;15.43;;;;;;;0.05;91.92;103142.06;5053778;28;20038;-75
2022/01/11 01:14:17;;;;;;;52.23;16.63;;;;;;;0.09;91.45;103154.13;5072784;28;20505;-77
2022/01/11 01:16:43;;;;;;;57.80;16.27;;;;;;;0.01;91.98;103164.34;5072178;28;20033;-75
2022/01/11 01:19:08;;;;;;;61.47;17.40;;;;;;;0.13;91.52;103165.31;5071957;28;20560;-75
2022/01/11 01:21:38;;;;;;;47.83;17.07;;;;;;;0.14;92.00;103173.16;5053240;28;20096;-75
2022/01/11 01:24:06;;;;;;;50.27;17.30;;;;;;;0.21;91.27;103174.47;5042207;28;20456;-76
2022/01/11 01:26:31;;;;;;;51.00;16.33;;;;;;;0.24;91.25;103176.88;5072686;28;20059;-75
2022/01/11 01:28:59;;;;;;;43.03;16.17;;;;;;;0.25;91.09;103183.88;5090417;28;20032;-74
2022/01/11 01:31:25;;;;;;;58.90;17.03;;;;;;;0.26;91.25;103180.28;5092226;28;20040;-74
2022/01/11 01:33:51;;;;;;;57.73;19.13;;;;;;;0.20;91.21;103180.69;5090949;28;20123;-75
2022/01/11 01:36:16;;;;;;;54.57;17.77;;;;;;;0.42;90.40;103180.09;5092346;28;20112;-76
2022/01/11 01:38:41;;;;;;;64.80;18.90;;;;;;;0.37;90.89;103177.78;5087705;28;20115;-75
2022/01/11 01:41:19;;;;;;;39.13;16.03;;;;;;;0.39;90.18;103180.31;5053525;28;20412;-75
2022/01/11 01:43:46;;;;;;;44.13;17.13;;;;;;;0.15;90.87;103184.56;5073095;28;20634;-76
2022/01/11 01:46:13;;;;;;;50.13;18.73;;;;;;;0.15;90.95;103188.06;5076022;28;20120;-77
2022/01/11 01:48:38;;;;;;;63.63;17.80;;;;;;;0.05;91.60;103188.78;5058076;28;20044;-76
2022/01/11 01:51:05;;;;;;;52.13;17.03;;;;;;;0.11;91.42;103191.00;5075599;28;20086;-74
2022/01/11 01:53:33;;;;;;;70.70;18.87;;;;;;;0.15;91.68;103193.38;5058314;28;20028;-75
2022/01/11 01:55:59;;;;;;;48.27;19.67;;;;;;;0.18;91.39;103198.44;5074399;28;20543;-74
2022/01/11 01:58:25;;;;;;;45.30;18.50;;;;;;;0.26;91.19;103190.84;5075658;28;20028;-76
2022/01/11 02:00:52;;;;;;;45.90;18.37;;;;;;;0.24;91.30;103198.03;5075409;28;20025;-75
2022/01/11 02:03:25;;;;;;;45.80;18.73;;;;;;;0.20;91.28;103201.00;5075789;28;20401;-75
2022/01/11 02:05:51;;;;;;;52.93;20.13;;;;;;;0.15;91.63;103197.81;5075596;28;20456;-75
2022/01/11 02:08:16;;;;;;;61.10;18.93;;;;;;;0.27;91.05;103183.78;5075957;28;20032;-75
2022/01/11 02:10:42;;;;;;;58.17;20.23;;;;;;;0.33;91.12;103184.22;5075198;28;20484;-75
2022/01/11 02:13:10;;;;;;;46.40;19.27;;;;;;;-0.03;92.16;103187.47;5075294;28;20111;-76
2022/01/11 02:15:36;;;;;;;60.03;18.80;;;;;;;-0.22;93.46;103188.75;5075243;28;20058;-76
2022/01/11 02:18:08;;;;;;;74.23;20.73;;;;;;;-0.30;94.34;103186.63;5057362;28;20499;-75
2022/01/11 02:20:36;;;;;;;75.60;22.50;;;;;;;-0.24;93.94;103174.81;5081120;28;20037;-75
2022/01/11 02:23:02;;;;;;;66.27;22.00;;;;;;;-0.13;94.10;103185.53;5075484;28;20070;-76
2022/01/11 02:25:27;;;;;;;57.20;20.70;;;;;;;-0.07;94.08;103182.50;5095297;28;20089;-75
2022/01/11 02:27:52;;;;;;;52.97;22.40;;;;;;;0.00;93.48;103179.34;5095017;28;20434;-75
2022/01/11 02:30:18;;;;;;;61.53;21.93;;;;;;;-0.07;93.48;103178.06;5095287;28;20043;-74
2022/01/11 02:32:51;;;;;;;67.93;20.90;;;;;;;0.05;93.27;103178.19;5077511;28;20040;-74
2022/01/11 02:35:16;;;;;;;65.90;21.67;;;;;;;-0.07;93.01;103171.91;5074821;28;20553;-76
2022/01/11 02:37:43;;;;;;;59.27;18.60;;;;;;;-0.15;93.32;103172.41;5091318;28;20043;-75
2022/01/11 02:40:09;;;;;;;53.20;20.60;;;;;;;-0.42;94.78;103181.25;5098028;28;20414;-74
2022/01/11 02:42:34;;;;;;;61.50;20.97;;;;;;;-0.55;95.81;103185.63;5094775;28;20032;-75
2022/01/11 02:45:00;;;;;;;62.00;20.23;;;;;;;-0.53;95.49;103183.72;5094918;28;20077;-75
2022/01/11 02:47:25;;;;;;;61.63;20.90;;;;;;;-0.61;95.92;103192.09;5095604;28;20054;-76
2022/01/11 02:49:50;;;;;;;70.30;21.03;;;;;;;-0.76;96.11;103194.84;5094885;28;20038;-76
2022/01/11 02:52:17;;;;;;;55.67;19.97;;;;;;;-0.76;96.04;103197.50;5093690;28;20085;-75
2022/01/11 02:54:42;;;;;;;54.57;20.20;;;;;;;-0.64;96.43;103186.19;5094738;28;20387;-76
2022/01/11 02:57:07;;;;;;;65.50;19.20;;;;;;;-0.51;96.31;103195.06;5094669;28;20082;-74
2022/01/11 02:59:33;;;;;;;54.37;20.57;;;;;;;-0.64;95.73;103183.53;5095383;28;20532;-76
2022/01/11 03:01:58;;;;;;;49.53;20.90;;;;;;;-0.68;96.64;103192.59;5094657;28;20032;-76
2022/01/11 03:04:28;;;;;;;62.00;21.20;;;;;;;-0.62;96.45;103190.44;5094695;28;20089;-74
2022/01/11 03:06:54;;;;;;;65.50;21.20;;;;;;;-0.57;96.36;103196.25;5076049;28;20028;-75
2022/01/11 03:09:19;;;;;;;51.40;20.17;;;;;;;-0.52;96.36;103207.41;5072716;28;20051;-75
2022/01/11 03:11:47;;;;;;;46.47;20.43;;;;;;;-0.44;96.29;103209.56;5073930;28;20541;-76
2022/01/11 03:14:12;;;;;;;54.40;21.73;;;;;;;-0.48;95.94;103208.91;5055929;28;20029;-75
2022/01/11 03:16:37;;;;;;;62.13;23.03;;;;;;;-0.52;96.48;103209.19;5082981;28;20063;-74
2022/01/11 03:19:03;;;;;;;54.53;22.03;;;;;;;-0.49;96.32;103215.09;5094376;28;20035;-75
2022/01/11 03:21:28;;;;;;;54.50;21.27;;;;;;;-0.43;96.66;103205.97;5094166;28;20039;-75
2022/01/11 03:23:54;;;;;;;54.03;21.40;;;;;;;-0.54;96.57;103206.63;5094179;28;20067;-75
2022/01/11 03:26:20;;;;;;;57.70;22.60;;;;;;;-0.60;96.92;103201.75;5076479;28;20024;-76
2022/01/11 03:28:46;;;;;;;54.27;20.03;;;;;;;-0.62;97.16;103200.13;5093881;28;20051;-77
2022/01/11 03:31:11;;;;;;;62.27;22.17;;;;;;;-0.68;97.13;103209.28;5075535;28;20040;-75
2022/01/11 03:33:37;;;;;;;59.03;22.17;;;;;;;-0.69;96.99;103206.75;5094110;28;20066;-75
2022/01/11 03:36:03;;;;;;;50.80;22.57;;;;;;;-0.74;97.61;103214.06;5093866;28;20031;-75
2022/01/11 03:38:30;;;;;;;55.23;20.87;;;;;;;-0.64;97.20;103207.28;5076307;28;20069;-75
2022/01/11 03:40:55;;;;;;;52.30;20.57;;;;;;;-0.63;97.43;103211.66;5093736;28;20040;-75
2022/01/11 03:43:22;;;;;;;51.93;20.63;;;;;;;-0.61;97.18;103210.59;5093764;28;20066;-75
2022/01/11 03:45:48;;;;;;;48.07;21.20;;;;;;;-0.67;97.14;103208.34;5075684;28;20043;-76
2022/01/11 03:48:15;;;;;;;54.70;22.03;;;;;;;-0.72;97.10;103212.19;5093719;28;20032;-75
2022/01/11 03:50:41;;;;;;;46.03;19.77;;;;;;;-0.70;97.76;103208.53;5094195;28;20028;-75
2022/01/11 03:53:15;;;;;;;63.50;21.13;;;;;;;-0.71;97.53;103212.13;5093600;28;20433;-75
2022/01/11 03:58:23;;;;;;;48.65;20.27;;;;;;;-0.66;97.19;103202.13;5093308;28;20069;-75
2022/01/11 04:00:50;;;;;;;48.40;20.60;;;;;;;-0.65;97.11;103203.81;5074937;28;20043;-76
2022/01/11 04:03:16;;;;;;;49.13;21.33;;;;;;;-0.67;97.18;103207.50;5093179;28;20024;-76
2022/01/11 04:05:43;;;;;;;56.03;20.33;;;;;;;-0.71;97.73;103206.84;5094061;28;20031;-75
2022/01/11 04:08:10;;;;;;;53.27;20.97;;;;;;;-0.72;97.58;103209.56;5093081;28;20499;-74
2022/01/11 04:10:35;;;;;;;49.67;20.07;;;;;;;-0.72;97.45;103214.84;5092980;28;20055;-75
2022/01/11 04:13:00;;;;;;;56.87;22.63;;;;;;;-0.75;97.63;103215.03;5092867;28;20032;-76
2022/01/11 04:15:26;;;;;;;45.27;20.43;;;;;;;-0.73;97.42;103199.97;5075137;28;20036;-77
2022/01/11 04:17:51;;;;;;;58.33;21.70;;;;;;;-0.77;97.73;103203.72;5093208;28;20039;-75
2022/01/11 04:20:19;;;;;;;41.20;18.17;;;;;;;-0.76;97.37;103208.03;5093567;28;20081;-76
2022/01/11 04:22:46;;;;;;;45.33;22.13;;;;;;;-0.80;97.49;103201.25;5093327;28;20379;-74
2022/01/11 04:25:11;;;;;;;45.57;18.97;;;;;;;-0.80;97.55;103202.13;5093007;28;20056;-75
2022/01/11 04:27:37;;;;;;;44.27;20.77;;;;;;;-0.82;97.35;103184.66;5092552;28;20032;-75
2022/01/11 04:30:03;;;;;;;49.00;19.77;;;;;;;-0.82;97.74;103187.31;5092777;28;20034;-76
2022/01/11 04:32:30;;;;;;;65.30;20.13;;;;;;;-0.76;97.43;103195.69;5074547;28;20379;-77
2022/01/11 04:34:56;;;;;;;58.07;21.73;;;;;;;-0.82;97.25;103197.84;5092604;28;20427;-73
2022/01/11 04:37:21;;;;;;;59.23;21.57;;;;;;;-0.84;97.68;103199.75;5092772;28;20060;-76
2022/01/11 04:39:47;;;;;;;47.67;19.97;;;;;;;-0.81;97.46;103200.44;5092341;28;20047;-75
2022/01/11 04:42:12;;;;;;;51.23;19.93;;;;;;;-0.78;97.47;103207.28;5091965;28;20043;-75
2022/01/11 04:44:38;;;;;;;47.47;20.00;;;;;;;-0.81;97.39;103200.44;5092806;28;20491;-74
2022/01/11 04:47:03;;;;;;;47.63;19.00;;;;;;;-0.78;97.35;103205.50;5073638;28;20051;-75
2022/01/11 04:49:29;;;;;;;51.67;19.00;;;;;;;-0.71;97.58;103208.63;5092226;28;20540;-74
2022/01/11 04:51:55;;;;;;;47.90;20.70;;;;;;;-0.84;97.12;103210.31;5092429;28;20098;-74
2022/01/11 04:54:20;;;;;;;49.73;20.47;;;;;;;-0.85;97.35;103201.56;5092867;28;20060;-76
2022/01/11 04:56:46;;;;;;;54.23;20.33;;;;;;;-0.84;97.41;103210.31;5073823;28;20570;-75
2022/01/11 04:59:11;;;;;;;44.77;20.20;;;;;;;-0.83;97.64;103214.66;5074200;28;20048;-76
2022/01/11 05:01:36;;;;;;;47.77;19.87;;;;;;;-0.78;97.35;103215.22;5083402;28;20032;-75
2022/01/11 05:04:02;;;;;;;43.00;20.50;;;;;;;-0.81;97.18;103215.41;5072109;28;20124;-75
2022/01/11 05:06:28;;;;;;;50.07;20.53;;;;;;;-0.75;97.55;103215.91;5090124;28;20099;-75
2022/01/11 05:08:53;;;;;;;48.70;19.70;;;;;;;-0.76;96.97;103216.81;5091476;28;20030;-75
2022/01/11 05:11:18;;;;;;;47.73;19.27;;;;;;;-0.80;96.87;103219.72;5092169;28;20024;-74
2022/01/11 05:13:44;;;;;;;38.53;17.47;;;;;;;-0.86;97.20;103223.59;5090974;28;20101;-75
2022/01/11 05:16:09;;;;;;;49.63;20.47;;;;;;;-0.80;96.86;103225.88;5091166;28;20093;-75
2022/01/11 05:18:36;;;;;;;46.83;20.43;;;;;;;-0.81;97.21;103224.19;5091887;28;20082;-74
2022/01/11 05:21:03;;;;;;;47.27;19.87;;;;;;;-0.84;97.37;103229.63;5073612;28;20036;-75
2022/01/11 05:23:28;;;;;;;50.93;18.93;;;;;;;-0.87;97.68;103229.84;5092849;28;20058;-75
2022/01/11 05:25:53;;;;;;;46.47;19.60;;;;;;;-0.76;97.55;103230.03;5091370;28;20139;-73
2022/01/11 05:28:19;;;;;;;41.87;19.90;;;;;;;-0.68;97.24;103222.47;5092434;28;20036;-74
2022/01/11 05:30:44;;;;;;;48.43;19.90;;;;;;;-0.82;96.92;103235.66;5092386;28;20115;-76
2022/01/11 05:33:10;;;;;;;44.10;18.00;;;;;;;-0.78;97.13;103220.50;5092221;28;20036;-75
2022/01/11 05:35:35;;;;;;;49.20;18.30;;;;;;;-0.84;96.83;103221.72;5092376;28;20032;-74
2022/01/11 05:38:01;;;;;;;40.97;18.80;;;;;;;-0.78;97.38;103220.50;5091725;28;20032;-74
2022/01/11 05:40:27;;;;;;;41.63;18.63;;;;;;;-0.72;97.40;103226.25;5091460;28;20527;-75
2022/01/11 05:42:52;;;;;;;41.27;17.90;;;;;;;-0.80;97.26;103227.66;5091387;28;20119;-73
2022/01/11 05:45:18;;;;;;;39.17;18.97;;;;;;;-0.69;97.01;103231.34;5091629;28;20044;-74
2022/01/11 05:47:44;;;;;;;40.00;19.83;;;;;;;-0.69;97.06;103228.72;5092420;28;20441;-75
2022/01/11 05:50:14;;;;;;;45.57;18.93;;;;;;;-0.69;97.32;103234.00;5092015;28;20036;-73
2022/01/11 05:52:40;;;;;;;43.30;19.77;;;;;;;-0.67;97.15;103244.44;5091661;28;20040;-74
2022/01/11 05:55:08;;;;;;;41.67;19.63;;;;;;;-0.67;96.58;103250.59;5091134;28;20048;-74
2022/01/11 05:57:34;;;;;;;34.83;18.30;;;;;;;-0.67;97.39;103241.81;5085769;28;20036;-74
2022/01/11 05:59:59;;;;;;;43.33;19.60;;;;;;;-0.77;96.90;103252.09;5089780;28;20505;-74
2022/01/11 06:02:25;;;;;;;43.47;19.53;;;;;;;-0.78;97.82;103255.66;5090482;28;20042;-73
2022/01/11 06:04:50;;;;;;;43.97;19.47;;;;;;;-0.67;97.59;103255.88;5090101;28;20029;-73
2022/01/11 06:07:16;;;;;;;55.57;21.30;;;;;;;-0.77;96.87;103257.38;5089995;28;20090;-73
2022/01/11 06:09:41;;;;;;;45.43;21.23;;;;;;;-0.76;97.30;103255.56;5089859;28;20130;-73
2022/01/11 06:12:07;;;;;;;54.67;20.63;;;;;;;-0.74;97.51;103248.41;5088840;28;20043;-73
2022/01/11 06:14:33;;;;;;;41.63;19.40;;;;;;;-0.73;97.65;103258.03;5090817;28;20113;-73
2022/01/11 06:16:58;;;;;;;51.13;20.90;;;;;;;-0.70;97.69;103265.75;5090515;28;20507;-73
2022/01/11 06:19:23;;;;;;;45.20;19.83;;;;;;;-0.76;97.72;103274.03;5090350;28;20487;-73
2022/01/11 06:21:49;;;;;;;47.20;20.93;;;;;;;-0.75;97.61;103279.25;5072173;28;20032;-73
2022/01/11 06:24:15;;;;;;;44.30;19.63;;;;;;;-0.69;97.88;103278.00;5077482;28;20107;-74
2022/01/11 06:26:42;;;;;;;56.57;22.53;;;;;;;-0.64;97.94;103281.22;5077789;28;20030;-74
2022/01/11 06:29:08;;;;;;;59.03;24.57;;;;;;;-0.53;97.34;103287.53;5093425;28;20119;-74
2022/01/11 06:31:35;;;;;;;57.80;22.77;;;;;;;-0.52;97.54;103280.47;5073065;28;20152;-75
2022/01/11 06:34:01;;;;;;;55.67;23.60;;;;;;;-0.51;96.57;103290.09;5076667;28;20036;-75
2022/01/11 06:36:27;;;;;;;60.50;23.20;;;;;;;-0.45;96.58;103290.56;5076482;28;20514;-74
2022/01/11 06:38:52;;;;;;;55.73;24.43;;;;;;;-0.45;96.19;103290.56;5079670;28;20059;-75
2022/01/11 06:41:17;;;;;;;51.27;21.37;;;;;;;-0.55;96.99;103285.94;5095986;28;20045;-75
2022/01/11 06:43:43;;;;;;;53.70;22.73;;;;;;;-0.50;97.15;103287.38;5115413;28;20043;-75
2022/01/11 06:46:09;;;;;;;58.03;25.50;;;;;;;-0.44;96.82;103286.13;5096587;28;20104;-74
2022/01/11 06:48:34;;;;;;;62.00;25.67;;;;;;;-0.22;96.39;103291.78;5096860;28;20069;-75
2022/01/11 06:51:00;;;;;;;61.93;26.53;;;;;;;-0.25;96.03;103282.25;5092799;28;20134;-76
2022/01/11 06:53:25;;;;;;;64.43;27.23;;;;;;;-0.21;96.01;103288.19;5096705;28;20032;-74
2022/01/11 06:55:53;;;;;;;73.97;26.03;;;;;;;-0.08;95.95;103286.50;5102441;28;20024;-75
2022/01/11 06:58:19;;;;;;;50.47;22.77;;;;;;;-0.09;95.54;103293.56;5107134;28;20031;-73
2022/01/11 07:00:45;;;;;;;68.57;26.20;;;;;;;-0.12;95.72;103303.50;5097396;28;20036;-75
2022/01/11 07:03:10;;;;;;;63.50;26.27;;;;;;;-0.14;95.82;103295.63;5095164;28;20035;-74
2022/01/11 07:05:36;;;;;;;64.13;27.83;;;;;;;-0.01;95.71;103306.28;5095564;28;20093;-75
2022/01/11 07:08:02;;;;;;;69.33;27.47;;;;;;;0.06;94.97;103299.66;5094255;28;20089;-75
2022/01/11 07:10:27;;;;;;;70.37;29.40;;;;;;;0.06;94.58;103298.84;5094534;28;20097;-75
2022/01/11 07:12:53;;;;;;;67.13;27.57;;;;;;;-0.02;95.31;103308.09;5094569;28;20024;-75
2022/01/11 07:15:18;;;;;;;73.37;30.03;;;;;;;0.05;94.99;103311.19;5092928;28;20123;-74
2022/01/11 07:17:43;;;;;;;72.00;26.83;;;;;;;0.08;95.18;103307.53;5094794;28;20547;-75
2022/01/11 07:20:09;;;;;;;52.40;21.23;;;;;;;-0.08;95.19;103321.69;5093915;28;20127;-73
2022/01/11 07:22:37;;;;;;;67.93;27.93;;;;;;;0.02;95.49;103315.84;5093953;28;20040;-75
2022/01/11 07:25:04;;;;;;;72.30;29.83;;;;;;;0.14;95.28;103313.25;5094273;28;20406;-75
2022/01/11 07:27:31;;;;;;;65.80;27.03;;;;;;;0.13;94.82;103308.06;5099253;28;20407;-75
2022/01/11 07:29:57;;;;;;;67.03;29.37;;;;;;;0.12;94.98;103301.09;5109685;28;20036;-75
2022/01/11 07:32:23;;;;;;;61.57;28.47;;;;;;;0.13;95.29;103302.78;5092291;28;20020;-76
2022/01/11 07:34:48;;;;;;;59.00;24.10;;;;;;;0.10;95.65;103305.63;5088857;28;20060;-77
2022/01/11 07:37:13;;;;;;;74.00;29.13;;;;;;;0.09;95.50;103318.00;5088739;28;20036;-75
2022/01/11 07:39:39;;;;;;;66.87;28.70;;;;;;;0.07;95.50;103317.25;5071852;28;20040;-76
2022/01/11 07:42:04;;;;;;;53.50;23.67;;;;;;;0.05;95.46;103320.91;5089938;28;20039;-77
2022/01/11 07:44:30;;;;;;;68.83;27.50;;;;;;;0.13;94.74;103322.13;5090371;28;20024;-75
2022/01/11 07:46:55;;;;;;;64.90;28.83;;;;;;;0.13;94.62;103330.06;5072226;28;20135;-76
2022/01/11 07:49:21;;;;;;;65.83;29.63;;;;;;;0.17;94.53;103325.44;5076048;28;20124;-75
2022/01/11 07:51:47;;;;;;;61.00;27.20;;;;;;;0.15;94.71;103332.59;5052014;28;20056;-75
2022/01/11 07:54:12;;;;;;;58.13;28.17;;;;;;;0.16;94.81;103336.97;5067439;28;20094;-75
2022/01/11 07:56:38;;;;;;;71.77;29.73;;;;;;;0.23;94.71;103348.84;5062119;28;20036;-77
2022/01/11 07:59:03;;;;;;;65.10;29.07;;;;;;;0.21;95.08;103354.22;5072227;28;20064;-77
2022/01/11 08:01:29;;;;;;;77.93;30.60;;;;;;;0.27;95.00;103359.13;5071871;28;20024;-76
2022/01/11 08:03:54;;;;;;;70.97;29.63;;;;;;;0.28;94.22;103347.59;5074777;28;20056;-76
2022/01/11 08:06:20;;;;;;;69.17;29.03;;;;;;;0.49;93.81;103348.03;5076348;28;20052;-76
2022/01/11 08:08:45;;;;;;;71.30;30.07;;;;;;;0.46;93.81;103335.84;5078432;28;20046;-76
2022/01/11 08:11:11;;;;;;;62.73;28.97;;;;;;;0.49;93.83;103338.28;5071819;28;20036;-76
2022/01/11 08:13:38;;;;;;;63.83;27.83;;;;;;;0.59;92.94;103351.78;5052658;28;20173;-77
2022/01/11 08:16:03;;;;;;;74.23;30.70;;;;;;;0.63;92.57;103348.81;5081768;28;20406;-76
2022/01/11 08:18:29;;;;;;;57.63;24.80;;;;;;;0.64;92.81;103349.69;5090582;28;20039;-75
2022/01/11 08:20:54;;;;;;;66.37;28.67;;;;;;;0.79;92.03;103349.53;5093220;28;20111;-77
2022/01/11 08:23:20;;;;;;;66.23;29.60;;;;;;;0.24;94.27;103353.16;5091563;28;20027;-75
2022/01/11 08:25:45;;;;;;;60.37;25.37;;;;;;;0.25;94.64;103355.75;5077372;28;20123;-76
2022/01/11 08:28:10;;;;;;;62.97;29.73;;;;;;;0.32;94.77;103362.31;5090958;28;20073;-76
2022/01/11 08:30:36;;;;;;;64.47;29.63;;;;;;;0.33;94.87;103355.25;5091121;28;20047;-76
2022/01/11 08:33:04;;;;;;;68.30;30.23;;;;;;;0.31;95.29;103350.06;5073199;28;20020;-76
2022/01/11 08:35:31;;;;;;;63.17;30.53;;;;;;;0.37;95.46;103354.97;5091616;28;20089;-76
2022/01/11 08:37:57;;;;;;;67.63;27.70;;;;;;;0.34;95.23;103359.56;5074021;28;20028;-75
2022/01/11 08:40:23;;;;;;;64.68;29.05;;;;;;;0.37;94.55;103357.59;5090246;28;20556;-75
2022/01/11 08:42:49;;;;;;;65.03;29.13;;;;;;;0.28;94.72;103355.53;5089464;28;20024;-74
2022/01/11 08:45:15;;;;;;;67.45;30.95;;;;;;;0.39;94.65;103360.16;5090437;28;20547;-77
2022/01/11 08:47:41;;;;;;;65.97;27.77;;;;;;;0.31;95.05;103371.22;5091820;28;20491;-76
2022/01/11 08:50:11;;;;;;;62.73;29.73;;;;;;;0.38;94.99;103364.56;5089944;28;20032;-75
2022/01/11 08:52:37;;;;;;;65.15;30.65;;;;;;;0.34;95.16;103365.72;5090532;28;20055;-77
2022/01/11 08:55:04;;;;;;;70.93;30.95;;;;;;;0.39;95.61;103368.94;5076325;28;20067;-75
2022/01/11 08:57:29;;;;;;;67.15;30.50;;;;;;;0.41;94.78;103371.47;5071771;28;20148;-75
2022/01/11 08:59:55;;;;;;;70.87;32.00;;;;;;;0.43;94.95;103370.41;5071656;28;20036;-75
2022/01/11 09:02:21;;;;;;;62.38;26.73;;;;;;;0.40;95.56;103370.63;5084744;28;20103;-75
2022/01/11 09:04:47;;;;;;;63.90;28.50;;;;;;;0.51;95.20;103368.13;5058161;28;20063;-76
2022/01/11 09:07:13;;;;;;;68.37;28.83;;;;;;;0.58;94.33;103371.25;5066721;28;20028;-74
2022/01/11 09:09:39;;;;;;;69.22;31.15;;;;;;;0.52;93.99;103374.28;5072391;28;20032;-75
2022/01/11 09:12:08;;;;;;;69.90;30.37;;;;;;;0.51;94.98;103381.34;5078086;28;20040;-76
2022/01/11 09:14:34;;;;;;;69.47;30.90;;;;;;;0.54;94.34;103393.53;5093073;28;20027;-75
2022/01/11 09:17:03;;;;;;;75.70;30.67;;;;;;;0.57;94.17;103386.25;5090740;28;20039;-75
2022/01/11 09:19:29;;;;;;;69.93;32.50;;;;;;;0.57;93.94;103385.44;5090110;28;20503;-75
2022/01/11 09:21:55;;;;;;;63.15;29.20;;;;;;;0.46;94.67;103391.41;5090717;28;20036;-76
2022/01/11 09:24:21;;;;;;;64.73;29.60;;;;;;;0.51;94.55;103391.09;5076826;28;20047;-75
2022/01/11 09:26:48;;;;;;;53.78;28.70;;;;;;;0.56;94.75;103395.16;5090220;28;20031;-74
2022/01/11 09:29:15;;;;;;;64.33;29.07;;;;;;;0.56;94.73;103387.22;5090256;28;20028;-75
2022/01/11 09:31:42;;;;;;;61.97;28.30;;;;;;;0.52;94.34;103382.22;5081559;28;20119;-75
2022/01/11 09:34:07;;;;;;;61.20;28.38;;;;;;;0.57;94.71;103383.59;5083947;28;20048;-76
2022/01/11 09:36:33;;;;;;;61.53;29.50;;;;;;;0.59;94.36;103375.59;5079251;28;20040;-76
2022/01/11 09:38:58;;;;;;;67.40;30.33;;;;;;;0.57;94.51;103380.13;5086770;28;20410;-75
2022/01/11 09:41:24;;;;;;;65.50;29.03;;;;;;;0.64;93.94;103379.63;5052024;28;20021;-75
2022/01/11 09:43:50;;;;;;;67.50;30.45;;;;;;;0.68;94.42;103382.94;5051497;28;20431;-75
2022/01/11 09:46:15;;;;;;;53.90;27.45;;;;;;;0.76;93.87;103373.56;5072545;28;20535;-75
2022/01/11 09:48:43;;;;;;;60.03;29.50;;;;;;;0.76;94.60;103378.00;5077133;28;20067;-76
2022/01/11 09:51:08;;;;;;;61.42;30.40;;;;;;;0.79;93.72;103370.69;5080485;28;20123;-75
2022/01/11 09:53:34;;;;;;;61.53;28.37;;;;;;;0.76;94.38;103370.06;5089901;28;20483;-75
2022/01/11 09:56:04;;;;;;;54.17;27.00;;;;;;;0.71;94.17;103366.84;5089509;28;20032;-75
2022/01/11 09:58:30;;;;;;;61.03;27.55;;;;;;;0.78;93.91;103368.16;5089971;28;20036;-74
2022/01/11 10:00:55;;;;;;;59.17;27.63;;;;;;;0.80;94.23;103369.78;5083471;28;20078;-76
2022/01/11 10:03:21;;;;;;;53.30;26.42;;;;;;;0.77;93.72;103367.31;5093956;28;20034;-75
2022/01/11 10:05:46;;;;;;;54.78;27.40;;;;;;;0.79;93.92;103369.84;5093426;28;20032;-75
2022/01/11 10:08:18;;;;;;;53.88;26.15;;;;;;;0.83;93.79;103366.03;5093346;28;20060;-74
2022/01/11 10:10:45;;;;;;;50.75;27.33;;;;;;;0.87;93.87;103375.47;5076011;28;20044;-76
2022/01/11 10:13:29;;;;;;;53.03;26.23;;;;;;;0.94;94.38;103376.81;5074262;28;20053;-74
2022/01/11 10:15:55;;;;;;;52.83;26.33;;;;;;;0.95;93.42;103367.91;5081702;28;20465;-75
2022/01/11 10:18:35;;;;;;;50.80;26.73;;;;;;;1.01;93.01;103378.09;5094397;28;20049;-75
2022/01/11 10:21:21;;;;;;;44.45;25.02;;;;;;;1.04;93.42;103372.59;5092378;28;20035;-74
2022/01/11 10:23:46;;;;;;;44.55;24.10;;;;;;;1.00;93.40;103367.59;5097291;28;20028;-74
2022/01/11 10:26:12;;;;;;;53.45;25.00;;;;;;;1.05;93.59;103365.47;5094249;28;20032;-74
2022/01/11 10:28:37;;;;;;;49.25;23.58;;;;;;;1.07;93.09;103372.38;5093055;28;20040;-74
2022/01/11 10:31:03;;;;;;;46.42;25.00;;;;;;;1.08;93.20;103374.06;5093235;28;20039;-74
2022/01/11 10:33:28;;;;;;;43.25;23.48;;;;;;;1.10;93.03;103374.81;5078618;28;20467;-72
2022/01/11 10:35:53;;;;;;;46.15;25.17;;;;;;;1.11;92.49;103373.88;5097368;28;20027;-74
2022/01/11 10:38:30;;;;;;;56.33;25.52;;;;;;;1.07;93.36;103377.69;5074541;28;20116;-75
2022/01/11 10:40:56;;;;;;;45.38;24.13;;;;;;;1.08;93.20;103370.59;5092575;28;20036;-74
2022/01/11 10:43:23;;;;;;;42.20;23.13;;;;;;;1.14;93.12;103375.47;5092544;28;20063;-73
2022/01/11 10:45:51;;;;;;;46.25;22.75;;;;;;;1.14;93.61;103378.97;5079592;28;20036;-75
2022/01/11 10:48:20;;;;;;;48.10;24.95;;;;;;;1.12;93.93;103378.22;5074644;28;20028;-75
2022/01/11 10:50:50;;;;;;;52.22;24.52;;;;;;;1.06;93.98;103388.38;5092514;28;20032;-75
2022/01/11 10:53:19;;;;;;;49.13;24.50;;;;;;;1.16;93.61;103384.16;5093701;28;20036;-75
2022/01/11 10:55:52;;;;;;;41.72;23.02;;;;;;;1.14;93.43;103380.78;5088992;28;20071;-76
2022/01/11 10:58:18;;;;;;;41.33;22.13;;;;;;;1.17;93.20;103388.50;5093065;28;20036;-76
2022/01/11 11:00:49;;;;;;;42.75;22.48;;;;;;;1.18;93.57;103393.69;5092394;28;20458;-78
2022/01/11 11:03:28;;;;;;;44.50;22.48;;;;;;;1.23;92.50;103386.31;5092703;28;20048;-77
2022/01/11 11:05:59;;;;;;;45.83;22.25;;;;;;;1.26;93.04;103378.13;5074248;28;20043;-77
2022/01/11 11:08:30;;;;;;;46.10;22.20;;;;;;;1.31;92.40;103383.13;5093317;28;20040;-77
2022/01/11 11:10:55;;;;;;;47.70;23.00;;;;;;;1.35;92.95;103379.34;5091795;28;20040;-75
2022/01/11 11:13:27;;;;;;;35.08;21.13;;;;;;;1.47;92.67;103374.06;5091818;28;20134;-77
2022/01/11 11:16:07;;;;;;;32.45;19.00;;;;;;;1.41;92.13;103373.63;5092548;28;20456;-76
2022/01/11 11:18:38;;;;;;;41.00;22.58;;;;;;;1.41;91.59;103370.97;5095949;28;20028;-76